sensor_id;sensor_type;location;lat;lon;timestamp;temperature;humidity
212;DHT22;16228;48.800;9.002;2023-08-21T00:01:33;22.80;96.90
212;DHT22;16228;48.800;9.002;2023-08-21T00:04:00;22.80;96.90
212;DHT22;16228;48.800;9.002;2023-08-21T00:06:27;22.90;96.90
212;DHT22;16228;48.800;9.002;2023-08-21T00:08:54;22.90;96.90
212;DHT22;16228;48.800;9.002;2023-08-21T00:11:21;22.80;96.90
212;DHT22;16228;48.800;9.002;2023-08-21T00:13:49;22.90;96.90
212;DHT22;16228;48.800;9.002;2023-08-21T00:16:17;22.90;96.90
212;DHT22;16228;48.800;9.002;2023-08-21T00:18:44;22.80;96.90
212;DHT22;16228;48.800;9.002;2023-08-21T00:21:11;22.80;96.90
212;DHT22;16228;48.800;9.002;2023-08-21T00:23:38;22.80;96.90
212;DHT22;16228;48.800;9.002;2023-08-21T00:26:05;22.80;96.90
212;DHT22;16228;48.800;9.002;2023-08-21T00:28:32;22.80;96.90
212;DHT22;16228;48.800;9.002;2023-08-21T00:31:02;22.70;96.90
212;DHT22;16228;48.800;9.002;2023-08-21T00:33:30;22.60;96.90
212;DHT22;16228;48.800;9.002;2023-08-21T00:35:57;22.60;96.90
212;DHT22;16228;48.800;9.002;2023-08-21T00:38:24;22.60;96.90
212;DHT22;16228;48.800;9.002;2023-08-21T00:40:52;22.60;96.90
212;DHT22;16228;48.800;9.002;2023-08-21T00:43:19;22.50;96.90
212;DHT22;16228;48.800;9.002;2023-08-21T00:45:48;22.50;96.90
212;DHT22;16228;48.800;9.002;2023-08-21T00:48:18;22.50;96.90
212;DHT22;16228;48.800;9.002;2023-08-21T00:50:45;22.40;96.90
212;DHT22;16228;48.800;9.002;2023-08-21T00:53:12;22.40;96.90
212;DHT22;16228;48.800;9.002;2023-08-21T00:55:40;22.40;96.90
212;DHT22;16228;48.800;9.002;2023-08-21T00:58:10;22.30;96.90
212;DHT22;16228;48.800;9.002;2023-08-21T01:00:37;22.10;96.90
212;DHT22;16228;48.800;9.002;2023-08-21T01:03:05;22.20;96.90
212;DHT22;16228;48.800;9.002;2023-08-21T01:05:34;22.10;96.90
212;DHT22;16228;48.800;9.002;2023-08-21T01:08:03;22.10;96.90
212;DHT22;16228;48.800;9.002;2023-08-21T01:10:39;22.10;96.90
212;DHT22;16228;48.800;9.002;2023-08-21T01:13:19;22.10;96.90
212;DHT22;16228;48.800;9.002;2023-08-21T01:15:50;22.00;96.90
212;DHT22;16228;48.800;9.002;2023-08-21T01:18:18;21.90;96.90
212;DHT22;16228;48.800;9.002;2023-08-21T01:20:48;21.90;96.90
212;DHT22;16228;48.800;9.002;2023-08-21T01:23:29;21.90;96.90
212;DHT22;16228;48.800;9.002;2023-08-21T01:25:56;21.90;96.90
212;DHT22;16228;48.800;9.002;2023-08-21T01:28:23;21.90;96.90
212;DHT22;16228;48.800;9.002;2023-08-21T01:30:56;21.80;96.90
212;DHT22;16228;48.800;9.002;2023-08-21T01:33:26;21.80;96.90
212;DHT22;16228;48.800;9.002;2023-08-21T01:35:55;21.80;96.90
212;DHT22;16228;48.800;9.002;2023-08-21T01:38:24;21.70;96.90
212;DHT22;16228;48.800;9.002;2023-08-21T01:40:53;21.70;96.90
212;DHT22;16228;48.800;9.002;2023-08-21T01:43:20;21.70;96.90
212;DHT22;16228;48.800;9.002;2023-08-21T01:45:47;21.70;96.90
212;DHT22;16228;48.800;9.002;2023-08-21T01:48:14;21.70;96.90
212;DHT22;16228;48.800;9.002;2023-08-21T01:50:41;21.70;96.90
212;DHT22;16228;48.800;9.002;2023-08-21T01:53:08;21.70;96.90
212;DHT22;16228;48.800;9.002;2023-08-21T01:55:35;21.60;96.90
212;DHT22;16228;48.800;9.002;2023-08-21T01:58:04;21.60;96.90
212;DHT22;16228;48.800;9.002;2023-08-21T02:00:31;21.60;96.90
212;DHT22;16228;48.800;9.002;2023-08-21T02:02:58;21.60;96.90
212;DHT22;16228;48.800;9.002;2023-08-21T02:05:25;21.50;96.90
212;DHT22;16228;48.800;9.002;2023-08-21T02:07:52;21.50;96.90
212;DHT22;16228;48.800;9.002;2023-08-21T02:10:18;21.50;96.90
212;DHT22;16228;48.800;9.002;2023-08-21T02:12:45;21.40;96.90
212;DHT22;16228;48.800;9.002;2023-08-21T02:15:14;21.40;96.90
212;DHT22;16228;48.800;9.002;2023-08-21T02:17:41;21.40;96.90
212;DHT22;16228;48.800;9.002;2023-08-21T02:20:10;21.40;96.90
212;DHT22;16228;48.800;9.002;2023-08-21T02:22:37;21.40;96.90
212;DHT22;16228;48.800;9.002;2023-08-21T02:25:05;21.40;96.90
212;DHT22;16228;48.800;9.002;2023-08-21T02:27:32;21.40;96.90
212;DHT22;16228;48.800;9.002;2023-08-21T02:29:59;21.30;96.90
212;DHT22;16228;48.800;9.002;2023-08-21T02:32:27;21.20;96.90
212;DHT22;16228;48.800;9.002;2023-08-21T02:34:54;21.20;96.90
212;DHT22;16228;48.800;9.002;2023-08-21T02:37:21;21.20;96.90
212;DHT22;16228;48.800;9.002;2023-08-21T02:39:48;21.20;96.90
212;DHT22;16228;48.800;9.002;2023-08-21T02:42:18;21.20;96.90
212;DHT22;16228;48.800;9.002;2023-08-21T02:44:45;21.20;96.90
212;DHT22;16228;48.800;9.002;2023-08-21T02:47:12;21.20;96.90
212;DHT22;16228;48.800;9.002;2023-08-21T02:49:40;21.10;96.90
212;DHT22;16228;48.800;9.002;2023-08-21T02:52:08;21.10;96.90
212;DHT22;16228;48.800;9.002;2023-08-21T02:54:35;21.10;96.90
212;DHT22;16228;48.800;9.002;2023-08-21T02:57:02;21.10;96.90
212;DHT22;16228;48.800;9.002;2023-08-21T02:59:29;21.10;96.90
212;DHT22;16228;48.800;9.002;2023-08-21T03:01:55;21.10;96.90
212;DHT22;16228;48.800;9.002;2023-08-21T03:04:22;21.00;96.90
212;DHT22;16228;48.800;9.002;2023-08-21T03:06:51;21.00;96.90
212;DHT22;16228;48.800;9.002;2023-08-21T03:09:18;20.90;96.90
212;DHT22;16228;48.800;9.002;2023-08-21T03:11:45;20.90;96.90
212;DHT22;16228;48.800;9.002;2023-08-21T03:14:12;20.90;96.90
212;DHT22;16228;48.800;9.002;2023-08-21T03:16:38;20.90;96.90
212;DHT22;16228;48.800;9.002;2023-08-21T03:19:05;20.90;96.90
212;DHT22;16228;48.800;9.002;2023-08-21T03:21:32;20.90;96.90
212;DHT22;16228;48.800;9.002;2023-08-21T03:24:01;20.80;96.90
212;DHT22;16228;48.800;9.002;2023-08-21T03:26:28;20.80;96.90
212;DHT22;16228;48.800;9.002;2023-08-21T03:28:55;20.80;96.90
212;DHT22;16228;48.800;9.002;2023-08-21T03:31:22;20.80;96.90
212;DHT22;16228;48.800;9.002;2023-08-21T03:33:49;20.80;96.90
212;DHT22;16228;48.800;9.002;2023-08-21T03:36:16;20.80;96.90
212;DHT22;16228;48.800;9.002;2023-08-21T03:38:43;20.80;96.90
212;DHT22;16228;48.800;9.002;2023-08-21T03:41:11;20.70;96.90
212;DHT22;16228;48.800;9.002;2023-08-21T03:43:38;20.70;96.90
212;DHT22;16228;48.800;9.002;2023-08-21T03:46:05;20.70;96.90
212;DHT22;16228;48.800;9.002;2023-08-21T03:48:32;20.60;96.90
212;DHT22;16228;48.800;9.002;2023-08-21T03:50:59;20.60;96.90
212;DHT22;16228;48.800;9.002;2023-08-21T03:53:26;20.60;96.90
212;DHT22;16228;48.800;9.002;2023-08-21T03:55:53;20.50;96.90
212;DHT22;16228;48.800;9.002;2023-08-21T03:58:21;20.60;96.90
212;DHT22;16228;48.800;9.002;2023-08-21T04:00:48;20.60;96.90
212;DHT22;16228;48.800;9.002;2023-08-21T04:03:15;20.60;96.90
212;DHT22;16228;48.800;9.002;2023-08-21T04:05:42;20.60;96.90
212;DHT22;16228;48.800;9.002;2023-08-21T04:08:09;20.60;96.90
212;DHT22;16228;48.800;9.002;2023-08-21T04:10:36;20.60;96.90
212;DHT22;16228;48.800;9.002;2023-08-21T04:13:04;20.60;96.90
212;DHT22;16228;48.800;9.002;2023-08-21T04:15:33;20.60;96.90
212;DHT22;16228;48.800;9.002;2023-08-21T04:18:01;20.60;96.90
212;DHT22;16228;48.800;9.002;2023-08-21T04:20:28;20.60;96.90
212;DHT22;16228;48.800;9.002;2023-08-21T04:22:55;20.60;96.90
212;DHT22;16228;48.800;9.002;2023-08-21T04:25:22;20.60;96.90
212;DHT22;16228;48.800;9.002;2023-08-21T04:27:49;20.60;96.90
212;DHT22;16228;48.800;9.002;2023-08-21T04:30:16;20.60;96.90
212;DHT22;16228;48.800;9.002;2023-08-21T04:32:45;20.50;96.90
212;DHT22;16228;48.800;9.002;2023-08-21T04:35:12;20.50;96.90
212;DHT22;16228;48.800;9.002;2023-08-21T04:37:43;20.50;96.90
212;DHT22;16228;48.800;9.002;2023-08-21T04:40:11;20.60;96.90
212;DHT22;16228;48.800;9.002;2023-08-21T04:42:38;20.60;96.90
212;DHT22;16228;48.800;9.002;2023-08-21T04:45:06;20.60;96.90
212;DHT22;16228;48.800;9.002;2023-08-21T04:47:33;20.50;96.90
212;DHT22;16228;48.800;9.002;2023-08-21T04:50:02;20.50;96.90
212;DHT22;16228;48.800;9.002;2023-08-21T04:52:29;20.50;96.90
212;DHT22;16228;48.800;9.002;2023-08-21T04:54:56;20.50;96.90
212;DHT22;16228;48.800;9.002;2023-08-21T04:57:23;20.50;96.90
212;DHT22;16228;48.800;9.002;2023-08-21T04:59:50;20.60;96.90
212;DHT22;16228;48.800;9.002;2023-08-21T05:02:17;20.60;96.90
212;DHT22;16228;48.800;9.002;2023-08-21T05:04:44;20.60;96.90
212;DHT22;16228;48.800;9.002;2023-08-21T05:07:12;20.60;96.90
212;DHT22;16228;48.800;9.002;2023-08-21T05:09:39;20.70;96.90
212;DHT22;16228;48.800;9.002;2023-08-21T05:12:08;20.70;96.90
212;DHT22;16228;48.800;9.002;2023-08-21T05:14:35;20.80;96.90
212;DHT22;16228;48.800;9.002;2023-08-21T05:17:03;20.80;96.90
212;DHT22;16228;48.800;9.002;2023-08-21T05:19:30;20.80;96.90
212;DHT22;16228;48.800;9.002;2023-08-21T05:21:57;20.80;96.90
212;DHT22;16228;48.800;9.002;2023-08-21T05:24:25;20.90;96.90
212;DHT22;16228;48.800;9.002;2023-08-21T05:26:52;21.00;96.90
212;DHT22;16228;48.800;9.002;2023-08-21T05:29:19;21.10;96.90
212;DHT22;16228;48.800;9.002;2023-08-21T05:31:46;21.10;96.90
212;DHT22;16228;48.800;9.002;2023-08-21T05:34:13;21.20;96.90
212;DHT22;16228;48.800;9.002;2023-08-21T05:36:40;21.30;96.90
212;DHT22;16228;48.800;9.002;2023-08-21T05:39:08;21.30;96.90
212;DHT22;16228;48.800;9.002;2023-08-21T05:41:36;21.40;96.90
212;DHT22;16228;48.800;9.002;2023-08-21T05:44:04;21.50;96.90
212;DHT22;16228;48.800;9.002;2023-08-21T05:46:31;21.60;96.90
212;DHT22;16228;48.800;9.002;2023-08-21T05:48:58;21.70;96.90
212;DHT22;16228;48.800;9.002;2023-08-21T05:51:25;21.80;96.90
212;DHT22;16228;48.800;9.002;2023-08-21T05:53:52;22.00;96.90
212;DHT22;16228;48.800;9.002;2023-08-21T05:56:19;22.10;96.90
212;DHT22;16228;48.800;9.002;2023-08-21T05:58:47;22.20;96.90
212;DHT22;16228;48.800;9.002;2023-08-21T06:01:14;22.30;96.90
212;DHT22;16228;48.800;9.002;2023-08-21T06:03:42;22.50;96.90
212;DHT22;16228;48.800;9.002;2023-08-21T06:06:09;22.60;96.90
212;DHT22;16228;48.800;9.002;2023-08-21T06:08:36;22.70;96.90
212;DHT22;16228;48.800;9.002;2023-08-21T06:11:03;22.90;96.90
212;DHT22;16228;48.800;9.002;2023-08-21T06:13:31;23.00;96.90
212;DHT22;16228;48.800;9.002;2023-08-21T06:15:59;23.20;96.90
212;DHT22;16228;48.800;9.002;2023-08-21T06:18:26;23.20;96.90
212;DHT22;16228;48.800;9.002;2023-08-21T06:20:55;23.40;96.90
212;DHT22;16228;48.800;9.002;2023-08-21T06:23:22;23.50;96.90
212;DHT22;16228;48.800;9.002;2023-08-21T06:25:49;23.70;96.90
212;DHT22;16228;48.800;9.002;2023-08-21T06:28:16;23.90;96.90
212;DHT22;16228;48.800;9.002;2023-08-21T06:30:44;24.20;96.90
212;DHT22;16228;48.800;9.002;2023-08-21T06:33:12;24.20;96.90
212;DHT22;16228;48.800;9.002;2023-08-21T06:35:40;24.30;96.90
212;DHT22;16228;48.800;9.002;2023-08-21T06:38:07;24.50;96.90
212;DHT22;16228;48.800;9.002;2023-08-21T06:40:33;24.90;96.90
212;DHT22;16228;48.800;9.002;2023-08-21T06:43:00;25.00;96.90
212;DHT22;16228;48.800;9.002;2023-08-21T06:45:29;25.20;96.90
212;DHT22;16228;48.800;9.002;2023-08-21T06:47:56;25.40;96.90
212;DHT22;16228;48.800;9.002;2023-08-21T06:50:24;25.50;96.90
212;DHT22;16228;48.800;9.002;2023-08-21T06:52:51;25.80;96.90
212;DHT22;16228;48.800;9.002;2023-08-21T06:55:19;26.20;96.90
212;DHT22;16228;48.800;9.002;2023-08-21T06:57:46;26.40;96.90
212;DHT22;16228;48.800;9.002;2023-08-21T07:00:13;26.80;96.90
212;DHT22;16228;48.800;9.002;2023-08-21T07:02:40;26.90;96.90
212;DHT22;16228;48.800;9.002;2023-08-21T07:05:07;27.00;96.90
212;DHT22;16228;48.800;9.002;2023-08-21T07:07:36;27.20;96.90
212;DHT22;16228;48.800;9.002;2023-08-21T07:10:03;27.80;96.90
212;DHT22;16228;48.800;9.002;2023-08-21T07:12:30;28.70;96.90
212;DHT22;16228;48.800;9.002;2023-08-21T07:14:57;29.90;96.90
212;DHT22;16228;48.800;9.002;2023-08-21T07:17:24;31.30;94.40
212;DHT22;16228;48.800;9.002;2023-08-21T07:19:51;32.70;90.40
212;DHT22;16228;48.800;9.002;2023-08-21T07:22:19;33.80;89.40
212;DHT22;16228;48.800;9.002;2023-08-21T07:24:47;34.90;87.90
212;DHT22;16228;48.800;9.002;2023-08-21T07:27:14;35.70;84.30
212;DHT22;16228;48.800;9.002;2023-08-21T07:29:41;36.50;82.80
212;DHT22;16228;48.800;9.002;2023-08-21T07:32:08;37.20;78.60
212;DHT22;16228;48.800;9.002;2023-08-21T07:34:35;37.70;79.20
212;DHT22;16228;48.800;9.002;2023-08-21T07:37:02;37.90;80.10
212;DHT22;16228;48.800;9.002;2023-08-21T07:39:29;38.50;78.70
212;DHT22;16228;48.800;9.002;2023-08-21T07:41:57;39.00;76.70
212;DHT22;16228;48.800;9.002;2023-08-21T07:44:24;38.90;77.10
212;DHT22;16228;48.800;9.002;2023-08-21T07:46:51;39.20;75.40
212;DHT22;16228;48.800;9.002;2023-08-21T07:49:18;39.20;77.80
212;DHT22;16228;48.800;9.002;2023-08-21T07:51:45;39.30;79.50
212;DHT22;16228;48.800;9.002;2023-08-21T07:54:12;39.50;77.30
212;DHT22;16228;48.800;9.002;2023-08-21T07:56:39;40.20;74.70
212;DHT22;16228;48.800;9.002;2023-08-21T07:59:08;40.30;73.80
212;DHT22;16228;48.800;9.002;2023-08-21T08:01:35;40.40;73.90
212;DHT22;16228;48.800;9.002;2023-08-21T08:04:01;40.70;73.50
212;DHT22;16228;48.800;9.002;2023-08-21T08:06:28;40.80;73.50
212;DHT22;16228;48.800;9.002;2023-08-21T08:08:55;41.20;72.30
212;DHT22;16228;48.800;9.002;2023-08-21T08:11:23;41.30;72.40
212;DHT22;16228;48.800;9.002;2023-08-21T08:13:50;41.20;71.70
212;DHT22;16228;48.800;9.002;2023-08-21T08:16:18;41.80;69.50
212;DHT22;16228;48.800;9.002;2023-08-21T08:18:45;41.90;69.50
212;DHT22;16228;48.800;9.002;2023-08-21T08:21:12;42.10;70.10
212;DHT22;16228;48.800;9.002;2023-08-21T08:23:39;42.30;66.80
212;DHT22;16228;48.800;9.002;2023-08-21T08:26:06;42.20;70.40
212;DHT22;16228;48.800;9.002;2023-08-21T08:28:34;42.20;69.00
212;DHT22;16228;48.800;9.002;2023-08-21T08:31:01;42.20;69.40
212;DHT22;16228;48.800;9.002;2023-08-21T08:33:30;42.30;68.60
212;DHT22;16228;48.800;9.002;2023-08-21T08:35:57;42.20;67.50
212;DHT22;16228;48.800;9.002;2023-08-21T08:38:24;42.00;70.40
212;DHT22;16228;48.800;9.002;2023-08-21T08:40:51;42.50;69.50
212;DHT22;16228;48.800;9.002;2023-08-21T08:43:22;42.80;67.40
212;DHT22;16228;48.800;9.002;2023-08-21T08:45:52;42.90;67.80
212;DHT22;16228;48.800;9.002;2023-08-21T08:48:21;43.30;67.00
212;DHT22;16228;48.800;9.002;2023-08-21T08:50:50;43.60;67.10
212;DHT22;16228;48.800;9.002;2023-08-21T08:53:18;43.80;65.90
212;DHT22;16228;48.800;9.002;2023-08-21T08:55:45;44.00;64.90
212;DHT22;16228;48.800;9.002;2023-08-21T08:58:13;44.00;66.80
212;DHT22;16228;48.800;9.002;2023-08-21T09:00:40;43.90;63.50
212;DHT22;16228;48.800;9.002;2023-08-21T09:03:07;44.00;63.40
212;DHT22;16228;48.800;9.002;2023-08-21T09:05:36;43.90;63.70
212;DHT22;16228;48.800;9.002;2023-08-21T09:08:10;43.60;64.50
212;DHT22;16228;48.800;9.002;2023-08-21T09:10:37;43.70;63.60
212;DHT22;16228;48.800;9.002;2023-08-21T09:13:10;43.70;63.10
212;DHT22;16228;48.800;9.002;2023-08-21T09:15:37;43.80;65.20
212;DHT22;16228;48.800;9.002;2023-08-21T09:18:04;43.90;65.00
212;DHT22;16228;48.800;9.002;2023-08-21T09:20:35;43.90;64.90
212;DHT22;16228;48.800;9.002;2023-08-21T09:23:03;44.30;65.20
212;DHT22;16228;48.800;9.002;2023-08-21T09:25:35;44.30;64.40
212;DHT22;16228;48.800;9.002;2023-08-21T09:28:05;44.60;63.10
212;DHT22;16228;48.800;9.002;2023-08-21T09:30:49;44.80;62.50
212;DHT22;16228;48.800;9.002;2023-08-21T09:33:17;44.90;62.30
212;DHT22;16228;48.800;9.002;2023-08-21T09:35:45;45.00;62.90
212;DHT22;16228;48.800;9.002;2023-08-21T09:38:12;45.10;61.90
212;DHT22;16228;48.800;9.002;2023-08-21T09:40:43;45.00;63.50
212;DHT22;16228;48.800;9.002;2023-08-21T09:43:10;45.10;61.90
212;DHT22;16228;48.800;9.002;2023-08-21T09:45:38;45.20;62.70
212;DHT22;16228;48.800;9.002;2023-08-21T09:48:05;45.10;62.90
212;DHT22;16228;48.800;9.002;2023-08-21T09:50:33;45.00;62.10
212;DHT22;16228;48.800;9.002;2023-08-21T09:53:02;45.20;62.90
212;DHT22;16228;48.800;9.002;2023-08-21T09:55:31;45.40;63.00
212;DHT22;16228;48.800;9.002;2023-08-21T09:58:00;45.30;62.40
212;DHT22;16228;48.800;9.002;2023-08-21T10:00:32;45.90;61.90
212;DHT22;16228;48.800;9.002;2023-08-21T10:03:01;46.00;59.50
212;DHT22;16228;48.800;9.002;2023-08-21T10:05:29;45.70;59.00
212;DHT22;16228;48.800;9.002;2023-08-21T10:08:00;45.10;60.60
212;DHT22;16228;48.800;9.002;2023-08-21T10:10:29;45.40;62.80
212;DHT22;16228;48.800;9.002;2023-08-21T10:12:57;45.70;60.80
212;DHT22;16228;48.800;9.002;2023-08-21T10:15:27;45.40;60.50
212;DHT22;16228;48.800;9.002;2023-08-21T10:17:54;45.50;59.50
212;DHT22;16228;48.800;9.002;2023-08-21T10:20:23;45.30;59.40
212;DHT22;16228;48.800;9.002;2023-08-21T10:22:54;45.40;58.90
212;DHT22;16228;48.800;9.002;2023-08-21T10:25:22;45.20;61.00
212;DHT22;16228;48.800;9.002;2023-08-21T10:27:53;45.90;58.90
212;DHT22;16228;48.800;9.002;2023-08-21T10:30:22;46.10;58.40
212;DHT22;16228;48.800;9.002;2023-08-21T10:32:52;46.00;59.50
212;DHT22;16228;48.800;9.002;2023-08-21T10:35:20;46.20;59.30
212;DHT22;16228;48.800;9.002;2023-08-21T10:38:07;45.60;58.90
212;DHT22;16228;48.800;9.002;2023-08-21T10:40:34;45.80;61.30
212;DHT22;16228;48.800;9.002;2023-08-21T10:43:02;46.20;61.00
212;DHT22;16228;48.800;9.002;2023-08-21T10:45:29;46.30;58.70
212;DHT22;16228;48.800;9.002;2023-08-21T10:47:59;46.60;59.20
212;DHT22;16228;48.800;9.002;2023-08-21T10:50:26;46.50;58.60
212;DHT22;16228;48.800;9.002;2023-08-21T10:52:54;46.30;59.80
212;DHT22;16228;48.800;9.002;2023-08-21T10:55:20;46.30;58.80
212;DHT22;16228;48.800;9.002;2023-08-21T10:57:49;46.40;59.40
212;DHT22;16228;48.800;9.002;2023-08-21T11:00:17;46.50;58.50
212;DHT22;16228;48.800;9.002;2023-08-21T11:02:45;46.40;59.90
212;DHT22;16228;48.800;9.002;2023-08-21T11:05:15;46.70;59.90
212;DHT22;16228;48.800;9.002;2023-08-21T11:07:44;46.60;58.70
212;DHT22;16228;48.800;9.002;2023-08-21T11:10:12;46.90;56.60
212;DHT22;16228;48.800;9.002;2023-08-21T11:12:48;47.00;55.00
212;DHT22;16228;48.800;9.002;2023-08-21T11:15:16;46.70;56.90
212;DHT22;16228;48.800;9.002;2023-08-21T11:17:51;47.10;58.00
212;DHT22;16228;48.800;9.002;2023-08-21T11:20:19;47.20;58.70
212;DHT22;16228;48.800;9.002;2023-08-21T11:22:46;46.80;57.70
212;DHT22;16228;48.800;9.002;2023-08-21T11:25:14;46.50;57.40
212;DHT22;16228;48.800;9.002;2023-08-21T11:27:42;46.00;61.00
212;DHT22;16228;48.800;9.002;2023-08-21T11:30:11;46.30;59.60
212;DHT22;16228;48.800;9.002;2023-08-21T11:32:39;46.40;60.10
212;DHT22;16228;48.800;9.002;2023-08-21T11:35:06;46.20;57.80
212;DHT22;16228;48.800;9.002;2023-08-21T11:37:43;46.80;59.10
212;DHT22;16228;48.800;9.002;2023-08-21T11:40:13;47.20;59.20
212;DHT22;16228;48.800;9.002;2023-08-21T11:42:40;46.60;56.70
212;DHT22;16228;48.800;9.002;2023-08-21T11:45:08;46.30;56.40
212;DHT22;16228;48.800;9.002;2023-08-21T11:47:36;46.00;57.80
212;DHT22;16228;48.800;9.002;2023-08-21T11:50:04;45.90;59.60
212;DHT22;16228;48.800;9.002;2023-08-21T11:52:32;45.90;58.50
212;DHT22;16228;48.800;9.002;2023-08-21T11:55:00;45.90;58.50
212;DHT22;16228;48.800;9.002;2023-08-21T11:57:28;44.80;60.80
212;DHT22;16228;48.800;9.002;2023-08-21T11:59:55;43.00;62.80
212;DHT22;16228;48.800;9.002;2023-08-21T12:02:24;41.40;63.70
212;DHT22;16228;48.800;9.002;2023-08-21T12:04:54;39.80;69.50
212;DHT22;16228;48.800;9.002;2023-08-21T12:07:22;38.50;72.00
212;DHT22;16228;48.800;9.002;2023-08-21T12:09:49;38.00;72.50
212;DHT22;16228;48.800;9.002;2023-08-21T12:12:17;37.90;71.90
212;DHT22;16228;48.800;9.002;2023-08-21T12:14:44;38.50;73.50
212;DHT22;16228;48.800;9.002;2023-08-21T12:17:11;38.70;71.60
212;DHT22;16228;48.800;9.002;2023-08-21T12:19:38;38.90;71.40
212;DHT22;16228;48.800;9.002;2023-08-21T12:22:05;39.00;72.30
212;DHT22;16228;48.800;9.002;2023-08-21T12:24:32;39.80;69.40
212;DHT22;16228;48.800;9.002;2023-08-21T12:26:59;40.90;66.90
212;DHT22;16228;48.800;9.002;2023-08-21T12:29:28;41.90;68.00
212;DHT22;16228;48.800;9.002;2023-08-21T12:31:55;42.80;66.50
212;DHT22;16228;48.800;9.002;2023-08-21T12:34:22;43.40;65.90
212;DHT22;16228;48.800;9.002;2023-08-21T12:36:50;43.10;62.40
212;DHT22;16228;48.800;9.002;2023-08-21T12:39:17;43.00;64.30
212;DHT22;16228;48.800;9.002;2023-08-21T12:41:45;43.40;61.80
212;DHT22;16228;48.800;9.002;2023-08-21T12:44:12;43.20;65.10
212;DHT22;16228;48.800;9.002;2023-08-21T12:46:40;42.30;63.80
212;DHT22;16228;48.800;9.002;2023-08-21T12:49:07;41.10;66.70
212;DHT22;16228;48.800;9.002;2023-08-21T12:51:34;40.40;68.70
212;DHT22;16228;48.800;9.002;2023-08-21T12:54:01;40.50;70.00
212;DHT22;16228;48.800;9.002;2023-08-21T12:56:28;40.70;69.40
212;DHT22;16228;48.800;9.002;2023-08-21T12:58:55;40.60;67.20
212;DHT22;16228;48.800;9.002;2023-08-21T13:01:22;39.80;69.30
212;DHT22;16228;48.800;9.002;2023-08-21T13:03:51;39.00;72.40
212;DHT22;16228;48.800;9.002;2023-08-21T13:06:18;38.30;74.10
212;DHT22;16228;48.800;9.002;2023-08-21T13:08:45;37.70;75.40
212;DHT22;16228;48.800;9.002;2023-08-21T13:11:12;37.10;77.20
212;DHT22;16228;48.800;9.002;2023-08-21T13:13:39;36.60;73.50
212;DHT22;16228;48.800;9.002;2023-08-21T13:16:06;36.10;78.40
212;DHT22;16228;48.800;9.002;2023-08-21T13:18:33;35.60;77.80
212;DHT22;16228;48.800;9.002;2023-08-21T13:21:01;35.30;83.30
212;DHT22;16228;48.800;9.002;2023-08-21T13:23:29;35.00;82.30
212;DHT22;16228;48.800;9.002;2023-08-21T13:25:56;34.70;80.30
212;DHT22;16228;48.800;9.002;2023-08-21T13:28:24;34.60;82.10
212;DHT22;16228;48.800;9.002;2023-08-21T13:30:51;34.60;84.20
212;DHT22;16228;48.800;9.002;2023-08-21T13:33:18;34.60;85.00
212;DHT22;16228;48.800;9.002;2023-08-21T13:35:45;34.70;83.70
212;DHT22;16228;48.800;9.002;2023-08-21T13:38:14;34.70;80.60
212;DHT22;16228;48.800;9.002;2023-08-21T13:40:41;34.70;82.80
212;DHT22;16228;48.800;9.002;2023-08-21T13:43:08;34.60;85.90
212;DHT22;16228;48.800;9.002;2023-08-21T13:45:37;34.50;84.60
212;DHT22;16228;48.800;9.002;2023-08-21T13:48:05;34.50;83.00
212;DHT22;16228;48.800;9.002;2023-08-21T13:50:32;34.60;83.70
212;DHT22;16228;48.800;9.002;2023-08-21T13:52:59;35.10;80.90
212;DHT22;16228;48.800;9.002;2023-08-21T13:55:28;35.50;83.10
212;DHT22;16228;48.800;9.002;2023-08-21T13:57:55;35.80;76.90
212;DHT22;16228;48.800;9.002;2023-08-21T14:00:22;36.00;81.60
212;DHT22;16228;48.800;9.002;2023-08-21T14:02:49;36.30;79.10
212;DHT22;16228;48.800;9.002;2023-08-21T14:05:17;36.50;79.00
212;DHT22;16228;48.800;9.002;2023-08-21T14:07:44;36.70;79.20
212;DHT22;16228;48.800;9.002;2023-08-21T14:10:11;36.80;77.50
212;DHT22;16228;48.800;9.002;2023-08-21T14:12:41;36.60;76.10
212;DHT22;16228;48.800;9.002;2023-08-21T14:15:08;36.30;77.40
212;DHT22;16228;48.800;9.002;2023-08-21T14:17:36;36.00;76.90
212;DHT22;16228;48.800;9.002;2023-08-21T14:20:04;35.90;77.80
212;DHT22;16228;48.800;9.002;2023-08-21T14:22:32;35.80;78.70
212;DHT22;16228;48.800;9.002;2023-08-21T14:24:59;35.70;79.60
212;DHT22;16228;48.800;9.002;2023-08-21T14:27:27;35.50;76.60
212;DHT22;16228;48.800;9.002;2023-08-21T14:29:56;35.40;77.90
212;DHT22;16228;48.800;9.002;2023-08-21T14:32:23;35.30;79.30
212;DHT22;16228;48.800;9.002;2023-08-21T14:34:50;35.20;80.80
212;DHT22;16228;48.800;9.002;2023-08-21T14:37:18;35.00;80.00
212;DHT22;16228;48.800;9.002;2023-08-21T14:39:46;34.90;82.00
212;DHT22;16228;48.800;9.002;2023-08-21T14:42:13;34.80;81.90
212;DHT22;16228;48.800;9.002;2023-08-21T14:44:40;34.80;79.70
212;DHT22;16228;48.800;9.002;2023-08-21T14:47:09;34.70;80.80
212;DHT22;16228;48.800;9.002;2023-08-21T14:49:36;34.50;81.70
212;DHT22;16228;48.800;9.002;2023-08-21T14:52:04;34.20;83.30
212;DHT22;16228;48.800;9.002;2023-08-21T14:54:33;34.00;82.70
212;DHT22;16228;48.800;9.002;2023-08-21T14:57:00;33.90;85.20
212;DHT22;16228;48.800;9.002;2023-08-21T14:59:27;33.80;83.10
212;DHT22;16228;48.800;9.002;2023-08-21T15:01:54;33.70;84.10
212;DHT22;16228;48.800;9.002;2023-08-21T15:04:23;33.50;82.20
212;DHT22;16228;48.800;9.002;2023-08-21T15:06:50;33.30;83.60
212;DHT22;16228;48.800;9.002;2023-08-21T15:09:17;33.20;85.50
212;DHT22;16228;48.800;9.002;2023-08-21T15:11:44;33.10;86.80
212;DHT22;16228;48.800;9.002;2023-08-21T15:14:11;33.10;87.70
212;DHT22;16228;48.800;9.002;2023-08-21T15:16:38;33.00;88.60
212;DHT22;16228;48.800;9.002;2023-08-21T15:19:05;33.00;89.30
212;DHT22;16228;48.800;9.002;2023-08-21T15:21:34;33.00;87.70
212;DHT22;16228;48.800;9.002;2023-08-21T15:24:01;32.80;83.80
212;DHT22;16228;48.800;9.002;2023-08-21T15:26:29;32.70;83.40
212;DHT22;16228;48.800;9.002;2023-08-21T15:28:56;32.70;84.40
212;DHT22;16228;48.800;9.002;2023-08-21T15:31:23;32.60;85.50
212;DHT22;16228;48.800;9.002;2023-08-21T15:33:50;32.60;87.60
212;DHT22;16228;48.800;9.002;2023-08-21T15:36:17;32.60;86.20
212;DHT22;16228;48.800;9.002;2023-08-21T15:38:45;32.60;84.70
212;DHT22;16228;48.800;9.002;2023-08-21T15:41:12;32.50;85.20
212;DHT22;16228;48.800;9.002;2023-08-21T15:43:39;32.50;87.10
212;DHT22;16228;48.800;9.002;2023-08-21T15:46:06;32.50;87.30
212;DHT22;16228;48.800;9.002;2023-08-21T15:48:33;32.50;86.00
212;DHT22;16228;48.800;9.002;2023-08-21T15:51:00;32.40;86.20
212;DHT22;16228;48.800;9.002;2023-08-21T15:53:28;32.40;87.00
212;DHT22;16228;48.800;9.002;2023-08-21T15:55:57;32.30;89.70
212;DHT22;16228;48.800;9.002;2023-08-21T15:58:24;32.20;90.40
212;DHT22;16228;48.800;9.002;2023-08-21T16:00:51;32.10;86.80
212;DHT22;16228;48.800;9.002;2023-08-21T16:03:18;32.10;89.20
212;DHT22;16228;48.800;9.002;2023-08-21T16:05:45;32.00;87.30